Royse City's Hourly Summary for Friday, July 6, 2018
Hour Temp
(f)
RH
(%)
Solar Rad.
(MJ/m2)
Rainfall
(in)
Wind
(mph)
7/6/2018 12:00 AM 80 73 0 0 0.11
7/6/2018 1:00 AM 79 74 0 0 0
7/6/2018 2:00 AM 77 78 0 0 0
7/6/2018 3:00 AM 77 81 0 0 0.05
7/6/2018 4:00 AM 76 83 0 0 0.02
7/6/2018 5:00 AM 75 85 0 0 0.04
7/6/2018 6:00 AM 75 91 0 0 0.03
7/6/2018 7:00 AM 74 92 0.04 0 0.13
7/6/2018 8:00 AM 76 78 0.48 0 0.52
7/6/2018 9:00 AM 82 65 1.18 0 0.66
7/6/2018 10:00 AM 86 60 1.77 0 1.35
7/6/2018 11:00 AM 88 51 1.9 0 1.72
7/6/2018 12:00 PM 91 43 2.59 0 2.46
7/6/2018 1:00 PM 91 42 1.71 0 1.89
7/6/2018 2:00 PM 92 42 2.15 0.02 1.67
7/6/2018 3:00 PM 76 65 0.11 0.99 3.65
7/6/2018 4:00 PM 75 87 0.62 0 0.07
7/6/2018 5:00 PM 79 69 1.11 0.01 1.7
7/6/2018 6:00 PM 79 67 0.62 0 1.57
7/6/2018 7:00 PM 79 72 0.42 0 0.64
7/6/2018 8:00 PM 79 72 0.13 0 0.86
7/6/2018 9:00 PM 78 78 0.01 0 1.59
7/6/2018 10:00 PM 77 80 0 0 0.68
7/6/2018 11:00 PM 76 78 0 0 0.84
Data Summary 79 71 14.84 1.02 0.93